^^
Soleil Laural Canyon Historical Data
Daily Summary for October 21, 2019 Units:  Both    English   Metric
Daily Weekly Monthly Yearly Custom
  High: Low: Average:
Temperature: 73.2 °F /  22.9 °C 52.3 °F /  11.3 °C 62.2 °F /  16.8 °C
Dew Point: 64.6 °F /  18.1 °C 51.6 °F /  10.9 °C 59.5 °F /  15.3 °C
Humidity: 97% 72% 91%
Wind Speed: 8.1mph /  13km/h - 2.4mph /  3.9km/h
Wind Gust: 10.3mph /  16.6km/h - -
Wind- - WNW
Pressure: 30.09 in /  1018.8 hPa 29.97 in /  1014.8 hPa -
Precipitation: 0.08 in /  2.03 mm    
Historical Graphs
 
 
Tabular Data for October 21, 2019
Time Temperature Dew Point Pressure Wind Wind Speed Wind Gust Humidity Rainfall Rate (Hourly) solar
00:00 56.5 °F /  13.6 °C 55.4 °F /  13 °C 30.04in /  1017.2hPa Calm     96% 0in /  0mm 0.00 W/m2
00:05 56.7 °F /  13.7 °C 55.6 °F /  13.1 °C 30.03in /  1016.8hPa Calm     96% 0in /  0mm 0.00 W/m2
00:10 56.1 °F /  13.4 °C 55 °F /  12.8 °C 30.02in /  1016.5hPa Calm     96% 0in /  0mm 0.00 W/m2
00:15 56.1 °F /  13.4 °C 55 °F /  12.8 °C 30.03in /  1016.8hPa Calm     96% 0in /  0mm 0.00 W/m2
00:20 55.9 °F /  13.3 °C 54.9 °F /  12.7 °C 30.03in /  1016.8hPa Calm     96% 0in /  0mm 0.00 W/m2
00:25 56.1 °F /  13.4 °C 55.4 °F /  13 °C 30.04in /  1017.2hPa Calm     97% 0in /  0mm 0.00 W/m2
00:30 55.9 °F /  13.3 °C 54.9 °F /  12.7 °C 30.03in /  1016.8hPa Calm     96% 0in /  0mm 0.00 W/m2
00:35 55.4 °F /  13 °C 54.3 °F /  12.4 °C 30.03in /  1016.8hPa Calm     96% 0in /  0mm 0.00 W/m2
00:40 55.4 °F /  13 °C 54.3 °F /  12.4 °C 30.03in /  1016.8hPa Calm     96% 0in /  0mm 0.00 W/m2
00:45 55 °F /  12.8 °C 54.3 °F /  12.4 °C 30.03in /  1016.8hPa Calm     97% 0in /  0mm 0.00 W/m2
00:50 55.2 °F /  12.9 °C 54.5 °F /  12.5 °C 30.04in /  1017.2hPa Calm     97% 0in /  0mm 0.00 W/m2
00:55 55 °F /  12.8 °C 54.3 °F /  12.4 °C 30.03in /  1016.8hPa Calm     97% 0in /  0mm 0.00 W/m2
01:00 55 °F /  12.8 °C 54.3 °F /  12.4 °C 30.03in /  1016.8hPa Calm     97% 0in /  0mm 0.00 W/m2
01:05 54.9 °F /  12.7 °C 54.1 °F /  12.3 °C 30.03in /  1016.8hPa Calm     97% 0in /  0mm 0.00 W/m2
01:10 54.5 °F /  12.5 °C 53.8 °F /  12.1 °C 30.03in /  1016.8hPa Calm     97% 0in /  0mm 0.00 W/m2
01:15 54.7 °F /  12.6 °C 54 °F /  12.2 °C 30.02in /  1016.5hPa Calm     97% 0in /  0mm 0.00 W/m2
01:20 54.5 °F /  12.5 °C 53.8 °F /  12.1 °C 30.03in /  1016.8hPa Calm     97% 0in /  0mm 0.00 W/m2
01:25 54.3 °F /  12.4 °C 53.6 °F /  12 °C 30.03in /  1016.8hPa Calm     97% 0in /  0mm 0.00 W/m2
01:30 54.1 °F /  12.3 °C 53.4 °F /  11.9 °C 30.03in /  1016.8hPa Calm     97% 0in /  0mm 0.00 W/m2
01:35 54.7 °F /  12.6 °C 54 °F /  12.2 °C 30.02in /  1016.5hPa Calm     97% 0in /  0mm 0.00 W/m2
01:40 54.3 °F /  12.4 °C 53.6 °F /  12 °C 30.02in /  1016.5hPa Calm     97% 0in /  0mm 0.00 W/m2
01:45 54.1 °F /  12.3 °C 53.4 °F /  11.9 °C 30.02in /  1016.5hPa Calm     97% 0in /  0mm 0.00 W/m2
01:50 54.1 °F /  12.3 °C 53.4 °F /  11.9 °C 30.02in /  1016.5hPa Calm     97% 0in /  0mm 0.00 W/m2
01:55 54.1 °F /  12.3 °C 53.4 °F /  11.9 °C 30.02in /  1016.5hPa Calm     97% 0in /  0mm 0.00 W/m2
02:00 54.1 °F /  12.3 °C 53.4 °F /  11.9 °C 30.02in /  1016.5hPa Calm     97% 0in /  0mm 0.00 W/m2
02:05 54.3 °F /  12.4 °C 53.6 °F /  12 °C 30.02in /  1016.5hPa Calm     97% 0in /  0mm 0.00 W/m2
02:10 54.1 °F /  12.3 °C 53.4 °F /  11.9 °C 30.02in /  1016.5hPa Calm     97% 0in /  0mm 0.00 W/m2
02:15 54.1 °F /  12.3 °C 53.4 °F /  11.9 °C 30.03in /  1016.8hPa Calm     97% 0in /  0mm 0.00 W/m2
02:20 54.1 °F /  12.3 °C 53.4 °F /  11.9 °C 30.02in /  1016.5hPa Calm     97% 0in /  0mm 0.00 W/m2
02:25 54 °F /  12.2 °C 53.2 °F /  11.8 °C 30.02in /  1016.5hPa Calm     97% 0in /  0mm 0.00 W/m2
02:30 53.8 °F /  12.1 °C 53.1 °F /  11.7 °C 30.03in /  1016.8hPa Calm     97% 0in /  0mm 0.00 W/m2
02:35 54.3 °F /  12.4 °C 53.6 °F /  12 °C 30.03in /  1016.8hPa Calm     97% 0in /  0mm 0.00 W/m2
02:40 53.6 °F /  12 °C 52.9 °F /  11.6 °C 30.04in /  1017.2hPa Calm     97% 0in /  0mm 0.00 W/m2
02:45 53.4 °F /  11.9 °C 52.7 °F /  11.5 °C 30.03in /  1016.8hPa Calm     97% 0in /  0mm 0.00 W/m2
02:50 53.6 °F /  12 °C 52.9 °F /  11.6 °C 30.03in /  1016.8hPa Calm     97% 0in /  0mm 0.00 W/m2
02:55 53.1 °F /  11.7 °C 52.3 °F /  11.3 °C 30.02in /  1016.5hPa Calm     97% 0in /  0mm 0.00 W/m2
03:00 52.7 °F /  11.5 °C 52 °F /  11.1 °C 30.02in /  1016.5hPa Calm     97% 0in /  0mm 0.00 W/m2
03:05 52.9 °F /  11.6 °C 52.2 °F /  11.2 °C 30.02in /  1016.5hPa Calm     97% 0in /  0mm 0.00 W/m2
03:10 53.2 °F /  11.8 °C 52.5 °F /  11.4 °C 30.02in /  1016.5hPa Calm     97% 0in /  0mm 0.00 W/m2
03:15 53.2 °F /  11.8 °C 52.5 °F /  11.4 °C 30.02in /  1016.5hPa Calm     97% 0in /  0mm 0.00 W/m2
03:20 52.5 °F /  11.4 °C 51.8 °F /  11 °C 30.02in /  1016.5hPa Calm     97% 0in /  0mm 0.00 W/m2
03:25 52.3 °F /  11.3 °C 51.6 °F /  10.9 °C 30.02in /  1016.5hPa Calm     97% 0in /  0mm 0.00 W/m2
03:30 52.7 °F /  11.5 °C 52 °F /  11.1 °C 30.01in /  1016.1hPa Calm     97% 0in /  0mm 0.00 W/m2
03:35 53.1 °F /  11.7 °C 52.3 °F /  11.3 °C 30.01in /  1016.1hPa Calm     97% 0in /  0mm 0.00 W/m2
03:40 53.6 °F /  12 °C 52.9 °F /  11.6 °C 30.02in /  1016.5hPa Calm     97% 0in /  0mm 0.00 W/m2
03:45 53.1 °F /  11.7 °C 52.3 °F /  11.3 °C 30.02in /  1016.5hPa West 0.2mph /  0.3km/h 1.1mph /  1.8km/h 97% 0in /  0mm 0.00 W/m2
03:50 52.3 °F /  11.3 °C 51.6 °F /  10.9 °C 30.01in /  1016.1hPa Calm     97% 0in /  0mm 0.00 W/m2
03:55 52.5 °F /  11.4 °C 51.8 °F /  11 °C 30.01in /  1016.1hPa Calm     97% 0in /  0mm 0.00 W/m2
04:00 52.9 °F /  11.6 °C 52.2 °F /  11.2 °C 30.00in /  1015.8hPa Calm     97% 0in /  0mm 0.00 W/m2
04:05 52.9 °F /  11.6 °C 52.2 °F /  11.2 °C 30.01in /  1016.1hPa Calm     97% 0in /  0mm 0.00 W/m2
04:10 52.9 °F /  11.6 °C 52.2 °F /  11.2 °C 30.00in /  1015.8hPa Calm     97% 0in /  0mm 0.00 W/m2
04:15 52.9 °F /  11.6 °C 52.2 °F /  11.2 °C 30.01in /  1016.1hPa Calm     97% 0in /  0mm 0.00 W/m2
04:20 52.9 °F /  11.6 °C 52.2 °F /  11.2 °C 30.00in /  1015.8hPa Calm     97% 0in /  0mm 0.00 W/m2
04:25 52.9 °F /  11.6 °C 52.2 °F /  11.2 °C 30.00in /  1015.8hPa Calm     97% 0in /  0mm 0.00 W/m2
04:30 52.9 °F /  11.6 °C 52.2 °F /  11.2 °C 30.01in /  1016.1hPa Calm     97% 0in /  0mm 0.00 W/m2
04:35 52.9 °F /  11.6 °C 52.2 °F /  11.2 °C 30.01in /  1016.1hPa Calm     97% 0in /  0mm 0.00 W/m2
04:40 52.9 °F /  11.6 °C 52.2 °F /  11.2 °C 30.00in /  1015.8hPa Calm     97% 0in /  0mm 0.00 W/m2
04:45 54.1 °F /  12.3 °C 53.4 °F /  11.9 °C 30.00in /  1015.8hPa West 1.3mph /  2.1km/h 2.2mph /  3.5km/h 97% 0in /  0mm 0.00 W/m2
04:50 54.1 °F /  12.3 °C 53.4 °F /  11.9 °C 30.00in /  1015.8hPa WNW 0.9mph /  1.4km/h 1.1mph /  1.8km/h 97% 0in /  0mm 0.00 W/m2
04:55 54.1 °F /  12.3 °C 53.4 °F /  11.9 °C 30.01in /  1016.1hPa Calm     97% 0in /  0mm 0.00 W/m2
05:00 54.1 °F /  12.3 °C 53.4 °F /  11.9 °C 30.00in /  1015.8hPa West 0.2mph /  0.3km/h 1.1mph /  1.8km/h 97% 0in /  0mm 0.00 W/m2
05:05 54.3 °F /  12.4 °C 53.6 °F /  12 °C 30.00in /  1015.8hPa West 2.2mph /  3.5km/h 2.2mph /  3.5km/h 97% 0in /  0mm 0.00 W/m2
05:10 54.3 °F /  12.4 °C 53.6 °F /  12 °C 30.01in /  1016.1hPa Calm     97% 0in /  0mm 0.00 W/m2
05:15 54.5 °F /  12.5 °C 53.8 °F /  12.1 °C 30.01in /  1016.1hPa West 0.9mph /  1.4km/h 1.1mph /  1.8km/h 97% 0in /  0mm 0.00 W/m2
05:20 54.5 °F /  12.5 °C 53.8 °F /  12.1 °C 30.02in /  1016.5hPa West 0.9mph /  1.4km/h 1.1mph /  1.8km/h 97% 0in /  0mm 0.00 W/m2
05:25 54.7 °F /  12.6 °C 54 °F /  12.2 °C 30.02in /  1016.5hPa WNW 1.1mph /  1.8km/h 1.1mph /  1.8km/h 97% 0in /  0mm 0.00 W/m2
05:30 54.7 °F /  12.6 °C 54 °F /  12.2 °C 30.02in /  1016.5hPa Calm     97% 0in /  0mm 0.00 W/m2
05:35 54.7 °F /  12.6 °C 54 °F /  12.2 °C 30.02in /  1016.5hPa Calm     97% 0in /  0mm 0.00 W/m2
05:40 54.7 °F /  12.6 °C 54 °F /  12.2 °C 30.02in /  1016.5hPa Calm     97% 0in /  0mm 0.00 W/m2
05:45 54.1 °F /  12.3 °C 53.4 °F /  11.9 °C 30.02in /  1016.5hPa Calm     97% 0in /  0mm 0.00 W/m2
05:51 54.3 °F /  12.4 °C 53.6 °F /  12 °C 30.01in /  1016.1hPa WNW 0.4mph /  0.6km/h 1.1mph /  1.8km/h 97% 0in /  0mm 0.00 W/m2
05:55 54.3 °F /  12.4 °C 53.6 °F /  12 °C 30.01in /  1016.1hPa WNW 0.9mph /  1.4km/h 1.1mph /  1.8km/h 97% 0in /  0mm 0.00 W/m2
06:00 54.1 °F /  12.3 °C 53.4 °F /  11.9 °C 30.01in /  1016.1hPa WNW 1.8mph /  2.9km/h 2.2mph /  3.5km/h 97% 0in /  0mm 0.00 W/m2
06:05 54.3 °F /  12.4 °C 53.6 °F /  12 °C 30.00in /  1015.8hPa Calm     97% 0in /  0mm 0.00 W/m2
06:10 54 °F /  12.2 °C 53.2 °F /  11.8 °C 30.01in /  1016.1hPa Calm     97% 0in /  0mm 0.00 W/m2
06:15 54.1 °F /  12.3 °C 53.4 °F /  11.9 °C 30.02in /  1016.5hPa WNW 0.2mph /  0.3km/h 1.1mph /  1.8km/h 97% 0in /  0mm 0.00 W/m2
06:20 54.1 °F /  12.3 °C 53.4 °F /  11.9 °C 30.02in /  1016.5hPa Calm     97% 0in /  0mm 0.00 W/m2
06:25 54.5 °F /  12.5 °C 53.8 °F /  12.1 °C 30.02in /  1016.5hPa WNW 1.1mph /  1.8km/h 1.1mph /  1.8km/h 97% 0in /  0mm 0.00 W/m2
06:30 54.7 °F /  12.6 °C 54 °F /  12.2 °C 30.02in /  1016.5hPa West 1.6mph /  2.6km/h 2.2mph /  3.5km/h 97% 0in /  0mm 0.00 W/m2
06:35 55 °F /  12.8 °C 54.3 °F /  12.4 °C 30.03in /  1016.8hPa West 0.9mph /  1.4km/h 1.1mph /  1.8km/h 97% 0in /  0mm 0.00 W/m2
06:40 55 °F /  12.8 °C 54.3 °F /  12.4 °C 30.02in /  1016.5hPa WNW 2mph /  3.2km/h 2.2mph /  3.5km/h 97% 0in /  0mm 0.00 W/m2
06:45 55 °F /  12.8 °C 54.3 °F /  12.4 °C 30.04in /  1017.2hPa Calm     97% 0in /  0mm 0.00 W/m2
06:50 54.9 °F /  12.7 °C 54.1 °F /  12.3 °C 30.03in /  1016.8hPa WNW 1.6mph /  2.6km/h 2.2mph /  3.5km/h 97% 0in /  0mm 0.00 W/m2
06:55 55 °F /  12.8 °C 54.3 °F /  12.4 °C 30.03in /  1016.8hPa West 1.1mph /  1.8km/h 1.1mph /  1.8km/h 97% 0in /  0mm 0.00 W/m2
07:00 55.4 °F /  13 °C 54.7 °F /  12.6 °C 30.04in /  1017.2hPa West 2.5mph /  4km/h 3.4mph /  5.5km/h 97% 0in /  0mm 0.00 W/m2
07:05 55.4 °F /  13 °C 54.7 °F /  12.6 °C 30.03in /  1016.8hPa WSW 2.2mph /  3.5km/h 3.4mph /  5.5km/h 97% 0in /  0mm 0.00 W/m2
07:10 55.4 °F /  13 °C 54.7 °F /  12.6 °C 30.04in /  1017.2hPa WSW 2.2mph /  3.5km/h 3.4mph /  5.5km/h 97% 0in /  0mm 0.00 W/m2
07:15 55.4 °F /  13 °C 54.7 °F /  12.6 °C 30.04in /  1017.2hPa WSW 2.2mph /  3.5km/h 3.4mph /  5.5km/h 97% 0in /  0mm 0.00 W/m2
07:20 55.4 °F /  13 °C 54.7 °F /  12.6 °C 30.04in /  1017.2hPa WSW 2.2mph /  3.5km/h 3.4mph /  5.5km/h 97% 0in /  0mm 0.00 W/m2
07:25 55.4 °F /  13 °C 54.7 °F /  12.6 °C 30.04in /  1017.2hPa WSW 2.2mph /  3.5km/h 3.4mph /  5.5km/h 97% 0in /  0mm 0.00 W/m2
07:30 55.4 °F /  13 °C 54.7 °F /  12.6 °C 30.04in /  1017.2hPa WSW 2.2mph /  3.5km/h 3.4mph /  5.5km/h 97% 0in /  0mm 0.00 W/m2
07:35 55.4 °F /  13 °C 54.7 °F /  12.6 °C 30.04in /  1017.2hPa West 2.2mph /  3.5km/h 2.2mph /  3.5km/h 97% 0in /  0mm 0.00 W/m2
07:40 55.2 °F /  12.9 °C 54.5 °F /  12.5 °C 30.04in /  1017.2hPa WNW 1.8mph /  2.9km/h 2.2mph /  3.5km/h 97% 0in /  0mm 0.00 W/m2
07:45 55.2 °F /  12.9 °C 54.5 °F /  12.5 °C 30.03in /  1016.8hPa WNW 1.8mph /  2.9km/h 2.2mph /  3.5km/h 97% 0in /  0mm 0.00 W/m2
07:50 55.2 °F /  12.9 °C 54.5 °F /  12.5 °C 30.03in /  1016.8hPa WNW 1.8mph /  2.9km/h 2.2mph /  3.5km/h 97% 0in /  0mm 0.00 W/m2
07:55 55.2 °F /  12.9 °C 54.5 °F /  12.5 °C 30.04in /  1017.2hPa WNW 1.8mph /  2.9km/h 2.2mph /  3.5km/h 97% 0in /  0mm 0.00 W/m2
08:00 55 °F /  12.8 °C 54.3 °F /  12.4 °C 30.04in /  1017.2hPa West 2.2mph /  3.5km/h 3.4mph /  5.5km/h 97% 0in /  0mm 8.56 W/m2
08:05 55 °F /  12.8 °C 54.3 °F /  12.4 °C 30.03in /  1016.8hPa West 2mph /  3.2km/h 2.2mph /  3.5km/h 97% 0in /  0mm 12.11 W/m2
08:10 55.2 °F /  12.9 °C 54.5 °F /  12.5 °C 30.04in /  1017.2hPa West 3.6mph /  5.8km/h 4.5mph /  7.2km/h 97% 0in /  0mm 12.97 W/m2
08:15 55.4 °F /  13 °C 54.7 °F /  12.6 °C 30.04in /  1017.2hPa West 1.6mph /  2.6km/h 2.2mph /  3.5km/h 97% 0in /  0mm 13.82 W/m2
08:20 55.6 °F /  13.1 °C 54.9 °F /  12.7 °C 30.04in /  1017.2hPa West 2.9mph /  4.7km/h 3.4mph /  5.5km/h 97% 0in /  0mm 19.08 W/m2
08:25 55.9 °F /  13.3 °C 55.2 °F /  12.9 °C 30.05in /  1017.5hPa West 3.4mph /  5.5km/h 3.4mph /  5.5km/h 97% 0in /  0mm 20.80 W/m2
08:30 56.1 °F /  13.4 °C 55.4 °F /  13 °C 30.04in /  1017.2hPa West 3.4mph /  5.5km/h 4.5mph /  7.2km/h 97% 0in /  0mm 25.07 W/m2
08:35 56.5 °F /  13.6 °C 55.8 °F /  13.2 °C 30.04in /  1017.2hPa West 4.9mph /  7.9km/h 6.9mph /  11.1km/h 97% 0in /  0mm 26.42 W/m2
08:40 56.7 °F /  13.7 °C 55.9 °F /  13.3 °C 30.04in /  1017.2hPa WNW 3.4mph /  5.5km/h 4.5mph /  7.2km/h 97% 0in /  0mm 43.31 W/m2
08:45 56.8 °F /  13.8 °C 56.1 °F /  13.4 °C 30.05in /  1017.5hPa WNW 3.4mph /  5.5km/h 5.8mph /  9.3km/h 97% 0in /  0mm 45.51 W/m2
08:50 57 °F /  13.9 °C 56.3 °F /  13.5 °C 30.05in /  1017.5hPa WNW 4.5mph /  7.2km/h 5.8mph /  9.3km/h 97% 0in /  0mm 51.50 W/m2
08:55 57.2 °F /  14 °C 56.5 °F /  13.6 °C 30.04in /  1017.2hPa WNW 4mph /  6.4km/h 5.8mph /  9.3km/h 97% 0in /  0mm 63.24 W/m2
09:00 57.6 °F /  14.2 °C 56.8 °F /  13.8 °C 30.05in /  1017.5hPa WNW 3.4mph /  5.5km/h 3.4mph /  5.5km/h 97% 0in /  0mm 91.87 W/m2
09:05 57.7 °F /  14.3 °C 57 °F /  13.9 °C 30.05in /  1017.5hPa WNW 3.8mph /  6.1km/h 4.5mph /  7.2km/h 97% 0in /  0mm 102.76 W/m2
09:10 58.1 °F /  14.5 °C 57.4 °F /  14.1 °C 30.05in /  1017.5hPa WNW 3.8mph /  6.1km/h 4.5mph /  7.2km/h 97% 0in /  0mm 110.59 W/m2
09:15 58.1 °F /  14.5 °C 57.4 °F /  14.1 °C 30.05in /  1017.5hPa WNW 1.8mph /  2.9km/h 2.2mph /  3.5km/h 97% 0in /  0mm 124.05 W/m2
09:20 58.1 °F /  14.5 °C 57.4 °F /  14.1 °C 30.06in /  1017.8hPa WNW 1.8mph /  2.9km/h 2.2mph /  3.5km/h 97% 0in /  0mm 124.05 W/m2
09:25 58.3 °F /  14.6 °C 57.6 °F /  14.2 °C 30.06in /  1017.8hPa West 4mph /  6.4km/h 4.5mph /  7.2km/h 97% 0in /  0mm 92.73 W/m2
09:30 58.6 °F /  14.8 °C 57.9 °F /  14.4 °C 30.06in /  1017.8hPa West 1.3mph /  2.1km/h 2.2mph /  3.5km/h 97% 0in /  0mm 103.61 W/m2
09:35 58.8 °F /  14.9 °C 58.1 °F /  14.5 °C 30.06in /  1017.8hPa NW 3.6mph /  5.8km/h 4.5mph /  7.2km/h 97% 0in /  0mm 90.65 W/m2
09:40 58.8 °F /  14.9 °C 58.1 °F /  14.5 °C 30.06in /  1017.8hPa West 4mph /  6.4km/h 4.5mph /  7.2km/h 97% 0in /  0mm 82.33 W/m2
09:45 59 °F /  15 °C 58.3 °F /  14.6 °C 30.06in /  1017.8hPa WSW 3.4mph /  5.5km/h 3.4mph /  5.5km/h 97% 0in /  0mm 68.51 W/m2
09:50 59.2 °F /  15.1 °C 58.5 °F /  14.7 °C 30.07in /  1018.2hPa West 3.4mph /  5.5km/h 3.4mph /  5.5km/h 97% 0in /  0mm 65.45 W/m2
09:55 59.2 °F /  15.1 °C 58.5 °F /  14.7 °C 30.06in /  1017.8hPa WNW 3.8mph /  6.1km/h 4.5mph /  7.2km/h 97% 0in /  0mm 61.53 W/m2
10:00 59.2 °F /  15.1 °C 58.5 °F /  14.7 °C 30.06in /  1017.8hPa West 1.3mph /  2.1km/h 2.2mph /  3.5km/h 97% 0in /  0mm 72.79 W/m2
10:05 59.4 °F /  15.2 °C 58.6 °F /  14.8 °C 30.06in /  1017.8hPa West 4.9mph /  7.9km/h 6.9mph /  11.1km/h 97% 0in /  0mm 74.99 W/m2
10:10 59.5 °F /  15.3 °C 58.8 °F /  14.9 °C 30.07in /  1018.2hPa WNW 4mph /  6.4km/h 4.5mph /  7.2km/h 97% 0in /  0mm 66.80 W/m2
10:15 59.5 °F /  15.3 °C 58.8 °F /  14.9 °C 30.07in /  1018.2hPa West 2.7mph /  4.3km/h 3.4mph /  5.5km/h 97% 0in /  0mm 70.71 W/m2
10:20 59.7 °F /  15.4 °C 59 °F /  15 °C 30.07in /  1018.2hPa West 1.8mph /  2.9km/h 2.2mph /  3.5km/h 97% 0in /  0mm 104.10 W/m2
10:25 60.1 °F /  15.6 °C 59.4 °F /  15.2 °C 30.07in /  1018.2hPa WNW 2.5mph /  4km/h 3.4mph /  5.5km/h 97% 0in /  0mm 92.73 W/m2
10:30 60.1 °F /  15.6 °C 59.4 °F /  15.2 °C 30.08in /  1018.5hPa NW 1.8mph /  2.9km/h 2.2mph /  3.5km/h 97% 0in /  0mm 92.73 W/m2
10:35 60.3 °F /  15.7 °C 59.5 °F /  15.3 °C 30.09in /  1018.8hPa West 0.9mph /  1.4km/h 1.1mph /  1.8km/h 97% 0in /  0mm 94.93 W/m2
10:40 60.3 °F /  15.7 °C 59.5 °F /  15.3 °C 30.08in /  1018.5hPa West 3.4mph /  5.5km/h 4.5mph /  7.2km/h 97% 0in /  0mm 102.27 W/m2
10:45 60.4 °F /  15.8 °C 59.7 °F /  15.4 °C 30.08in /  1018.5hPa WNW 5.4mph /  8.7km/h 6.9mph /  11.1km/h 97% 0in /  0mm 117.07 W/m2
10:50 60.6 °F /  15.9 °C 59.9 °F /  15.5 °C 30.08in /  1018.5hPa West 3.4mph /  5.5km/h 3.4mph /  5.5km/h 97% 0in /  0mm 120.99 W/m2
10:55 60.6 °F /  15.9 °C 59.9 °F /  15.5 °C 30.07in /  1018.2hPa West 2.9mph /  4.7km/h 3.4mph /  5.5km/h 97% 0in /  0mm 124.41 W/m2
11:00 60.8 °F /  16 °C 60.1 °F /  15.6 °C 30.06in /  1017.8hPa West 3.4mph /  5.5km/h 3.4mph /  5.5km/h 97% 0in /  0mm 137.51 W/m2
11:05 61.2 °F /  16.2 °C 60.4 °F /  15.8 °C 30.06in /  1017.8hPa WNW 3.4mph /  5.5km/h 3.4mph /  5.5km/h 97% 0in /  0mm 155.24 W/m2
11:10 61.3 °F /  16.3 °C 60.6 °F /  15.9 °C 30.05in /  1017.5hPa WNW 5.1mph /  8.2km/h 5.8mph /  9.3km/h 97% 0in /  0mm 178.24 W/m2
11:15 61.7 °F /  16.5 °C 60.6 °F /  15.9 °C 30.05in /  1017.5hPa WNW 4.5mph /  7.2km/h 5.8mph /  9.3km/h 96% 0in /  0mm 204.66 W/m2
11:20 61.9 °F /  16.6 °C 60.8 °F /  16 °C 30.05in /  1017.5hPa NW 3.8mph /  6.1km/h 4.5mph /  7.2km/h 96% 0in /  0mm 193.90 W/m2
11:25 62.2 °F /  16.8 °C 60.8 °F /  16 °C 30.04in /  1017.2hPa WSW 3.8mph /  6.1km/h 4.5mph /  7.2km/h 95% 0in /  0mm 245.52 W/m2
11:30 63 °F /  17.2 °C 61 °F /  16.1 °C 30.04in /  1017.2hPa WNW 2.9mph /  4.7km/h 3.4mph /  5.5km/h 94% 0in /  0mm 215.07 W/m2
11:35 63.3 °F /  17.4 °C 61.2 °F /  16.2 °C 30.04in /  1017.2hPa NW 4.5mph /  7.2km/h 6.9mph /  11.1km/h 93% 0in /  0mm 284.92 W/m2
11:40 64 °F /  17.8 °C 61.7 °F /  16.5 °C 30.04in /  1017.2hPa NW 5.4mph /  8.7km/h 8.1mph /  13km/h 92% 0in /  0mm 185.58 W/m2
11:45 64.4 °F /  18 °C 61.7 °F /  16.5 °C 30.04in /  1017.2hPa NW 2.2mph /  3.5km/h 3.4mph /  5.5km/h 91% 0in /  0mm 166.50 W/m2
11:50 64.6 °F /  18.1 °C 61.5 °F /  16.4 °C 30.04in /  1017.2hPa West 5.8mph /  9.3km/h 6.9mph /  11.1km/h 90% 0in /  0mm 204.30 W/m2
11:55 64.6 °F /  18.1 °C 61.5 °F /  16.4 °C 30.04in /  1017.2hPa West 4.3mph /  6.9km/h 4.5mph /  7.2km/h 90% 0in /  0mm 238.56 W/m2
12:00 65.5 °F /  18.6 °C 62.1 °F /  16.7 °C 30.05in /  1017.5hPa WNW 5.8mph /  9.3km/h 6.9mph /  11.1km/h 89% 0in /  0mm 238.92 W/m2
12:05 65.7 °F /  18.7 °C 62.2 °F /  16.8 °C 30.04in /  1017.2hPa West 2.7mph /  4.3km/h 3.4mph /  5.5km/h 89% 0in /  0mm 251.52 W/m2
12:10 65.8 °F /  18.8 °C 62.1 °F /  16.7 °C 30.04in /  1017.2hPa West 4mph /  6.4km/h 4.5mph /  7.2km/h 88% 0in /  0mm 261.55 W/m2
12:15 65.8 °F /  18.8 °C 62.1 °F /  16.7 °C 30.05in /  1017.5hPa West 2.9mph /  4.7km/h 3.4mph /  5.5km/h 88% 0in /  0mm 210.78 W/m2
12:20 66 °F /  18.9 °C 62.2 °F /  16.8 °C 30.04in /  1017.2hPa WSW 6.9mph /  11.1km/h 8.1mph /  13km/h 88% 0in /  0mm 207.73 W/m2
12:25 66.4 °F /  19.1 °C 62.4 °F /  16.9 °C 30.04in /  1017.2hPa NW 5.8mph /  9.3km/h 8.1mph /  13km/h 87% 0in /  0mm 304.49 W/m2
12:30 66.9 °F /  19.4 °C 63 °F /  17.2 °C 30.05in /  1017.5hPa West 1.1mph /  1.8km/h 1.1mph /  1.8km/h 87% 0in /  0mm 259.84 W/m2
12:35 66.9 °F /  19.4 °C 63 °F /  17.2 °C 30.06in /  1017.8hPa West 1.1mph /  1.8km/h 1.1mph /  1.8km/h 87% 0in /  0mm 259.84 W/m2
12:40 67.5 °F /  19.7 °C 63.1 °F /  17.3 °C 30.05in /  1017.5hPa NW 4.5mph /  7.2km/h 5.8mph /  9.3km/h 86% 0in /  0mm 230.24 W/m2
12:45 67.6 °F /  19.8 °C 63 °F /  17.2 °C 30.05in /  1017.5hPa NW 4.9mph /  7.9km/h 5.8mph /  9.3km/h 85% 0in /  0mm 264.12 W/m2
12:50 67.8 °F /  19.9 °C 63.1 °F /  17.3 °C 30.06in /  1017.8hPa NW 4.9mph /  7.9km/h 5.8mph /  9.3km/h 85% 0in /  0mm 319.66 W/m2
12:55 68.5 °F /  20.3 °C 63.1 °F /  17.3 °C 30.04in /  1017.2hPa NW 3.8mph /  6.1km/h 5.8mph /  9.3km/h 83% 0in /  0mm 303.64 W/m2
13:00 68.5 °F /  20.3 °C 63.1255 °F /  17.3 °C 30.04in /  1017.2hPa WNW 4mph /  6.4km/h 5.8mph /  9.3km/h 83% 0in /  0mm 324.44 W/m2
13:05 68.9 °F /  20.5 °C 63.5 °F /  17.5 °C 30.04in /  1017.2hPa NNW 2.7mph /  4.3km/h 3.4mph /  5.5km/h 83% 0in /  0mm 204.66 W/m2
13:10 69.1 °F /  20.6 °C 63.3 °F /  17.4 °C 30.05in /  1017.5hPa NNW 5.4mph /  8.7km/h 6.9mph /  11.1km/h 82% 0in /  0mm 268.52 W/m2
13:15 69.3 °F /  20.7 °C 63.5 °F /  17.5 °C 30.05in /  1017.5hPa West 6mph /  9.7km/h 6.9mph /  11.1km/h 82% 0in /  0mm 408.97 W/m2
13:20 69.3 °F /  20.7 °C 63.1 °F /  17.3 °C 30.04in /  1017.2hPa West 8.1mph /  13km/h 10.3mph /  16.6km/h 81% 0in /  0mm 397.71 W/m2
13:25 69.6 °F /  20.9 °C 63.5 °F /  17.5 °C 30.04in /  1017.2hPa NNW 4.5mph /  7.2km/h 5.8mph /  9.3km/h 81% 0in /  0mm 346.57 W/m2
13:30 69.6 °F /  20.9 °C 63.1 °F /  17.3 °C 30.04in /  1017.2hPa NW 4.7mph /  7.6km/h 8.1mph /  13km/h 80% 0in /  0mm 322.72 W/m2
13:35 69.6 °F /  20.9 °C 63.1 °F /  17.3 °C 30.04in /  1017.2hPa West 2.9mph /  4.7km/h 4.5mph /  7.2km/h 80% 0in /  0mm 322.72 W/m2
13:40 69.8 °F /  21 °C 63.3 °F /  17.4 °C 30.03in /  1016.8hPa NW 7.6mph /  12.2km/h 10.3mph /  16.6km/h 80% 0in /  0mm 266.69 W/m2
13:45 69.6 °F /  20.9 °C 63.1 °F /  17.3 °C 30.05in /  1017.5hPa WNW 4mph /  6.4km/h 5.8mph /  9.3km/h 80% 0in /  0mm 247.24 W/m2
13:50 69.8 °F /  21 °C 63.3425 °F /  17.4 °C 30.04in /  1017.2hPa West 6.5mph /  10.5km/h 8.1mph /  13km/h 80% 0in /  0mm 239.78 W/m2
13:55 69.8 °F /  21 °C 63.3425 °F /  17.4 °C 30.03in /  1016.8hPa West 6.5mph /  10.5km/h 8.1mph /  13km/h 80% 0in /  0mm 243.69 W/m2
14:00 69.8 °F /  21 °C 63.3 °F /  17.4 °C 30.03in /  1016.8hPa NW 3.4mph /  5.5km/h 5.8mph /  9.3km/h 80% 0in /  0mm 233.29 W/m2
14:05 70.2 °F /  21.2 °C 63.3 °F /  17.4 °C 30.03in /  1016.8hPa West 6.9mph /  11.1km/h 8.1mph /  13km/h 79% 0in /  0mm 324.44 W/m2
14:10 70.5 °F /  21.4 °C 63.7 °F /  17.6 °C 30.03in /  1016.8hPa NNW 4.7mph /  7.6km/h 6.9mph /  11.1km/h 79% 0in /  0mm 403.83 W/m2
14:15 70.9 °F /  21.6 °C 63.7 °F /  17.6 °C 30.03in /  1016.8hPa West 4.9mph /  7.9km/h 6.9mph /  11.1km/h 78% 0in /  0mm 318.32 W/m2
14:20 70.9 °F /  21.6 °C 63.6875 °F /  17.6 °C 30.02in /  1016.5hPa WNW 3.8mph /  6.1km/h 4.5mph /  7.2km/h 78% 0in /  0mm 279.78 W/m2
14:25 71.2 °F /  21.8 °C 64 °F /  17.8 °C 30.02in /  1016.5hPa West 4mph /  6.4km/h 4.5mph /  7.2km/h 78% 0in /  0mm 319.66 W/m2
14:30 71.6 °F /  22 °C 64 °F /  17.8 °C 30.03in /  1016.8hPa NNW 4.3mph /  6.9km/h 4.5mph /  7.2km/h 77% 0in /  0mm 448.48 W/m2
14:35 72 °F /  22.2 °C 64.3835 °F /  18 °C 30.03in /  1016.8hPa WSW 2.5mph /  4km/h 3.4mph /  5.5km/h 77% 0in /  0mm 353.91 W/m2
14:40 71.8 °F /  22.1 °C 63.9 °F /  17.7 °C 30.02in /  1016.5hPa WNW 5.8mph /  9.3km/h 6.9mph /  11.1km/h 76% 0in /  0mm 400.77 W/m2
14:45 71.8 °F /  22.1 °C 64.2 °F /  17.9 °C 30.02in /  1016.5hPa West 1.8mph /  2.9km/h 2.2mph /  3.5km/h 77% 0in /  0mm 271.46 W/m2
14:50 71.8 °F /  22.1 °C 63.8158 °F /  17.7 °C 30.02in /  1016.5hPa NW 6.9mph /  11.1km/h 8.1mph /  13km/h 76% 0in /  0mm 226.81 W/m2
14:55 72 °F /  22.2 °C 64 °F /  17.8 °C 30.02in /  1016.5hPa WNW 5.4mph /  8.7km/h 6.9mph /  11.1km/h 76% 0in /  0mm 216.41 W/m2
15:00 72 °F /  22.2 °C 64.009 °F /  17.8 °C 30.02in /  1016.5hPa West 4mph /  6.4km/h 4.5mph /  7.2km/h 76% 0in /  0mm 183.87 W/m2
15:05 71.8 °F /  22.1 °C 64.2 °F /  17.9 °C 30.02in /  1016.5hPa WNW 2.5mph /  4km/h 3.4mph /  5.5km/h 77% 0in /  0mm 333.98 W/m2
15:10 72.5 °F /  22.5 °C 63.3 °F /  17.4 °C 30.02in /  1016.5hPa North 1.3mph /  2.1km/h 3.4mph /  5.5km/h 73% 0in /  0mm 291.89 W/m2
15:15 72.9 °F /  22.7 °C 63.7 °F /  17.6 °C 30.03in /  1016.8hPa WNW 2.5mph /  4km/h 3.4mph /  5.5km/h 73% 0in /  0mm 259.35 W/m2
15:20 72.9 °F /  22.7 °C 64.1137 °F /  17.8 °C 30.02in /  1016.5hPa NNW 3.8mph /  6.1km/h 4.5mph /  7.2km/h 74% 0in /  0mm 264.61 W/m2
15:25 72.7 °F /  22.6 °C 64.4 °F /  18 °C 30.02in /  1016.5hPa West 3.8mph /  6.1km/h 4.5mph /  7.2km/h 75% 0in /  0mm 216.90 W/m2
15:30 72.3 °F /  22.4 °C 63.5359 °F /  17.5 °C 30.02in /  1016.5hPa NW 1.3mph /  2.1km/h 2.2mph /  3.5km/h 74% 0in /  0mm 196.47 W/m2
15:35 72.3 °F /  22.4 °C 64 °F /  17.8 °C 30.02in /  1016.5hPa West 2.5mph /  4km/h 3.4mph /  5.5km/h 75% 0in /  0mm 146.56 W/m2
15:40 72.5 °F /  22.5 °C 63.3 °F /  17.4 °C 30.02in /  1016.5hPa NNW 2.5mph /  4km/h 3.4mph /  5.5km/h 73% 0in /  0mm 199.90 W/m2
15:45 72.5 °F /  22.5 °C 63.3399 °F /  17.4 °C 30.02in /  1016.5hPa NNW 4.3mph /  6.9km/h 5.8mph /  9.3km/h 73% 0in /  0mm 169.07 W/m2
15:50 72.1 °F /  22.3 °C 62.9554 °F /  17.2 °C 30.02in /  1016.5hPa WNW 3.8mph /  6.1km/h 4.5mph /  7.2km/h 73% 0in /  0mm 160.02 W/m2
15:55 72 °F /  22.2 °C 62.8 °F /  17.1 °C 30.01in /  1016.1hPa West 3.8mph /  6.1km/h 5.8mph /  9.3km/h 73% 0in /  0mm 152.19 W/m2
16:00 72 °F /  22.2 °C 62.8 °F /  17.1 °C 30.00in /  1015.8hPa WNW 2.2mph /  3.5km/h 2.2mph /  3.5km/h 73% 0in /  0mm 216.41 W/m2
16:05 72.3 °F /  22.4 °C 63.1 °F /  17.3 °C 30.01in /  1016.1hPa WNW 0.9mph /  1.4km/h 1.1mph /  1.8km/h 73% 0in /  0mm 195.61 W/m2
16:10 72.3 °F /  22.4 °C 63.1 °F /  17.3 °C 30.01in /  1016.1hPa WNW 0.9mph /  1.4km/h 1.1mph /  1.8km/h 73% 0in /  0mm 162.22 W/m2
16:15 72.3 °F /  22.4 °C 63.7 °F /  17.6 °C 30.02in /  1016.5hPa West 2.2mph /  3.5km/h 2.2mph /  3.5km/h 74% 0in /  0mm 146.56 W/m2
16:20 72.3 °F /  22.4 °C 63.1 °F /  17.3 °C 30.02in /  1016.5hPa West 0.2mph /  0.3km/h 1.1mph /  1.8km/h 73% 0in /  0mm 193.05 W/m2
16:25 72.9 °F /  22.7 °C 63.7 °F /  17.6 °C 30.01in /  1016.1hPa Calm     73% 0in /  0mm 267.18 W/m2
16:30 73.2 °F /  22.9 °C 63.6184 °F /  17.6 °C 30.02in /  1016.5hPa ENE 1.8mph /  2.9km/h 2.2mph /  3.5km/h 72% 0in /  0mm 183.02 W/m2
16:35 72.7 °F /  22.6 °C 63.9211 °F /  17.7 °C 30.02in /  1016.5hPa WNW 2mph /  3.2km/h 2.2mph /  3.5km/h 74% 0in /  0mm 135.30 W/m2
16:40 72.5 °F /  22.5 °C 64.1125 °F /  17.8 °C 30.02in /  1016.5hPa NW 2.9mph /  4.7km/h 3.4mph /  5.5km/h 75% 0in /  0mm 121.36 W/m2
16:45 72.1 °F /  22.3 °C 64.6 °F /  18.1 °C 30.01in /  1016.1hPa NW 1.1mph /  1.8km/h 1.1mph /  1.8km/h 77% 0in /  0mm 113.16 W/m2
16:50 71.6 °F /  22 °C 64.4 °F /  18 °C 30.02in /  1016.5hPa Calm     78% 0in /  0mm 130.90 W/m2
16:55 71.4 °F /  21.9 °C 64.5373 °F /  18.1 °C 30.01in /  1016.1hPa West 2.9mph /  4.7km/h 3.4mph /  5.5km/h 79% 0in /  0mm 112.30 W/m2
17:00 71.1 °F /  21.7 °C 64.6 °F /  18.1 °C 30.01in /  1016.1hPa WNW 2.7mph /  4.3km/h 3.4mph /  5.5km/h 80% 0in /  0mm 82.33 W/m2
17:05 70.7 °F /  21.5 °C 64.6 °F /  18.1 °C 30.01in /  1016.1hPa WNW 2.9mph /  4.7km/h 3.4mph /  5.5km/h 81% 0in /  0mm 100.56 W/m2
17:10 70.5 °F /  21.4 °C 64.3791 °F /  18 °C 30.01in /  1016.1hPa West 4mph /  6.4km/h 4.5mph /  7.2km/h 81% 0in /  0mm 73.28 W/m2
17:15 70.3 °F /  21.3 °C 64.1843 °F /  17.9 °C 30.01in /  1016.1hPa WNW 5.1mph /  8.2km/h 8.1mph /  13km/h 81% 0in /  0mm 79.76 W/m2
17:20 70.2 °F /  21.2 °C 64 °F /  17.8 °C 30.00in /  1015.8hPa WSW 4.9mph /  7.9km/h 6.9mph /  11.1km/h 81% 0in /  0mm 92.73 W/m2
17:25 70.2 °F /  21.2 °C 64.4 °F /  18 °C 30.01in /  1016.1hPa WNW 3.4mph /  5.5km/h 3.4mph /  5.5km/h 82% 0in /  0mm 62.02 W/m2
17:30 70.2 °F /  21.2 °C 64.4 °F /  18 °C 30.00in /  1015.8hPa West 3.8mph /  6.1km/h 4.5mph /  7.2km/h 82% 0in /  0mm 54.56 W/m2
17:35 70 °F /  21.1 °C 64.2 °F /  17.9 °C 30.00in /  1015.8hPa WNW 3.1mph /  5km/h 3.4mph /  5.5km/h 82% 0in /  0mm 53.70 W/m2
17:40 69.8 °F /  21 °C 64.4 °F /  18 °C 30.00in /  1015.8hPa West 3.6mph /  5.8km/h 4.5mph /  7.2km/h 83% 0in /  0mm 29.85 W/m2
17:45 69.6 °F /  20.9 °C 64.2001 °F /  17.9 °C 30.00in /  1015.8hPa West 2.9mph /  4.7km/h 4.5mph /  7.2km/h 83% 0in /  0mm 25.94 W/m2
17:50 69.4 °F /  20.8 °C 64 °F /  17.8 °C 30.00in /  1015.8hPa West 2.2mph /  3.5km/h 2.2mph /  3.5km/h 83% 0in /  0mm 23.85 W/m2
17:55 69.4 °F /  20.8 °C 64.0047 °F /  17.8 °C 30.00in /  1015.8hPa NW 2.2mph /  3.5km/h 2.2mph /  3.5km/h 83% 0in /  0mm 28.14 W/m2
18:00 69.3 °F /  20.7 °C 64.2499 °F /  17.9 °C 30.00in /  1015.8hPa WNW 2.5mph /  4km/h 3.4mph /  5.5km/h 84% 0in /  0mm 28.14 W/m2
18:05 69.3 °F /  20.7 °C 64.2 °F /  17.9 °C 30.00in /  1015.8hPa West 2.9mph /  4.7km/h 3.4mph /  5.5km/h 84% 0in /  0mm 16.39 W/m2
18:10 69.3 °F /  20.7 °C 64.2 °F /  17.9 °C 30.00in /  1015.8hPa West 4.9mph /  7.9km/h 5.8mph /  9.3km/h 84% 0in /  0mm 22.87 W/m2
18:15 69.1 °F /  20.6 °C 64 °F /  17.8 °C 30.00in /  1015.8hPa West 4mph /  6.4km/h 4.5mph /  7.2km/h 84% 0in /  0mm 22.87 W/m2
18:20 69.1 °F /  20.6 °C 64.4 °F /  18 °C 29.99in /  1015.5hPa West 2.7mph /  4.3km/h 3.4mph /  5.5km/h 85% 0in /  0mm 15.17 W/m2
18:25 68.9 °F /  20.5 °C 64.1973 °F /  17.9 °C 29.99in /  1015.5hPa West 4mph /  6.4km/h 4.5mph /  7.2km/h 85% 0in /  0mm 11.62 W/m2
18:30 68.9 °F /  20.5 °C 64.1973 °F /  17.9 °C 29.99in /  1015.5hPa West 2.2mph /  3.5km/h 2.2mph /  3.5km/h 85% 0in /  0mm 8.56 W/m2
18:35 68.7 °F /  20.4 °C 64.0013 °F /  17.8 °C 29.99in /  1015.5hPa West 2.2mph /  3.5km/h 2.2mph /  3.5km/h 85% 0in /  0mm 5.63 W/m2
18:40 68.9 °F /  20.5 °C 64.1973 °F /  17.9 °C 30.00in /  1015.8hPa West 4.9mph /  7.9km/h 6.9mph /  11.1km/h 85% 0in /  0mm 2.08 W/m2
18:45 68.9 °F /  20.5 °C 64.2 °F /  17.9 °C 30.00in /  1015.8hPa West 3.4mph /  5.5km/h 4.5mph /  7.2km/h 85% 0in /  0mm 2.08 W/m2
18:50 68.7 °F /  20.4 °C 64.0013 °F /  17.8 °C 30.00in /  1015.8hPa WNW 2.9mph /  4.7km/h 3.4mph /  5.5km/h 85% 0in /  0mm 1.22 W/m2
18:55 68.7 °F /  20.4 °C 64 °F /  17.8 °C 29.99in /  1015.5hPa NW 5.4mph /  8.7km/h 8.1mph /  13km/h 85% 0in /  0mm 0.00 W/m2
19:00 68.7 °F /  20.4 °C 64.3363 °F /  18 °C 29.99in /  1015.5hPa WNW 3.1mph /  5km/h 4.5mph /  7.2km/h 86% 0in /  0mm 0.00 W/m2
19:05 68.5 °F /  20.3 °C 64.2 °F /  17.9 °C 29.99in /  1015.5hPa WNW 2.9mph /  4.7km/h 4.5mph /  7.2km/h 86% 0in /  0mm 0.00 W/m2
19:10 68.5 °F /  20.3 °C 64.14 °F /  17.9 °C 30.00in /  1015.8hPa West 4mph /  6.4km/h 4.5mph /  7.2km/h 86% 0in /  0mm 0.00 W/m2
19:15 68.5 °F /  20.3 °C 63.9 °F /  17.7 °C 30.01in /  1016.1hPa West 5.4mph /  8.7km/h 6.9mph /  11.1km/h 85% 0in /  0mm 0.00 W/m2
19:20 68.5 °F /  20.3 °C 64.2 °F /  17.9 °C 30.00in /  1015.8hPa WNW 3.1mph /  5km/h 3.4mph /  5.5km/h 86% 0in /  0mm 0.00 W/m2
19:25 68.5 °F /  20.3 °C 64.2 °F /  17.9 °C 30.00in /  1015.8hPa West 2.9mph /  4.7km/h 3.4mph /  5.5km/h 86% 0in /  0mm 0.00 W/m2
19:30 68.2 °F /  20.1 °C 63.9 °F /  17.7 °C 30.00in /  1015.8hPa West 2.9mph /  4.7km/h 3.4mph /  5.5km/h 86% 0in /  0mm 0.00 W/m2
19:35 68.2 °F /  20.1 °C 64.2 °F /  17.9 °C 30.01in /  1016.1hPa WNW 5.8mph /  9.3km/h 5.8mph /  9.3km/h 87% 0in /  0mm 0.00 W/m2
19:40 68 °F /  20 °C 64 °F /  17.8 °C 30.01in /  1016.1hPa WNW 4mph /  6.4km/h 6.9mph /  11.1km/h 87% 0in /  0mm 0.00 W/m2
19:45 67.8 °F /  19.9 °C 63.9 °F /  17.7 °C 30.01in /  1016.1hPa West 1.8mph /  2.9km/h 3.4mph /  5.5km/h 87% 0in /  0mm 0.00 W/m2
19:50 67.8 °F /  19.9 °C 63.9 °F /  17.7 °C 30.00in /  1015.8hPa NW 4.7mph /  7.6km/h 6.9mph /  11.1km/h 87% 0in /  0mm 0.00 W/m2
19:55 67.6 °F /  19.8 °C 63.9 °F /  17.7 °C 30.01in /  1016.1hPa WNW 2.2mph /  3.5km/h 2.2mph /  3.5km/h 88% 0in /  0mm 0.00 W/m2
20:00 67.5 °F /  19.7 °C 64 °F /  17.8 °C 30.01in /  1016.1hPa West 1.6mph /  2.6km/h 2.2mph /  3.5km/h 89% 0in /  0mm 0.00 W/m2
20:05 67.1 °F /  19.5 °C 64 °F /  17.8 °C 30.01in /  1016.1hPa West 4mph /  6.4km/h 4.5mph /  7.2km/h 90% 0in /  0mm 0.00 W/m2
20:10 66.9 °F /  19.4 °C 63.9 °F /  17.7 °C 30.02in /  1016.5hPa WNW 2.5mph /  4km/h 3.4mph /  5.5km/h 90% 0in /  0mm 0.00 W/m2
20:15 66.9 °F /  19.4 °C 63.9 °F /  17.7 °C 30.02in /  1016.5hPa West 2.5mph /  4km/h 3.4mph /  5.5km/h 90% 0in /  0mm 0.00 W/m2
20:20 66.7 °F /  19.3 °C 64 °F /  17.8 °C 30.02in /  1016.5hPa WNW 1.8mph /  2.9km/h 2.2mph /  3.5km/h 91% 0in /  0mm 0.00 W/m2
20:25 66.7 °F /  19.3 °C 64 °F /  17.8 °C 30.02in /  1016.5hPa West 1.8mph /  2.9km/h 3.4mph /  5.5km/h 91% 0.01in /  0.25mm 0.00 W/m2
20:30 66.6 °F /  19.2 °C 64.2 °F /  17.9 °C 30.02in /  1016.5hPa West 1.8mph /  2.9km/h 2.2mph /  3.5km/h 92% 0.01in /  0.25mm 0.00 W/m2
20:35 66.2 °F /  19 °C 63.9 °F /  17.7 °C 30.02in /  1016.5hPa West 4.5mph /  7.2km/h 6.9mph /  11.1km/h 92% 0.01in /  0.25mm 0.00 W/m2
20:40 66.2 °F /  19 °C 64 °F /  17.8 °C 30.01in /  1016.1hPa West 3.4mph /  5.5km/h 4.5mph /  7.2km/h 93% 0.01in /  0.25mm 0.00 W/m2
20:45 66 °F /  18.9 °C 63.9 °F /  17.7 °C 30.02in /  1016.5hPa West 2.9mph /  4.7km/h 4.5mph /  7.2km/h 93% 0.01in /  0.25mm 0.00 W/m2
20:50 66 °F /  18.9 °C 63.9 °F /  17.7 °C 30.02in /  1016.5hPa West 2.5mph /  4km/h 3.4mph /  5.5km/h 93% 0.02in /  0.51mm 0.00 W/m2
20:55 65.8 °F /  18.8 °C 63.9 °F /  17.7 °C 30.02in /  1016.5hPa West 2.2mph /  3.5km/h 2.2mph /  3.5km/h 94% 0.02in /  0.51mm 0.00 W/m2
21:00 65.7 °F /  18.7 °C 63.7 °F /  17.6 °C 30.02in /  1016.5hPa West 1.8mph /  2.9km/h 2.2mph /  3.5km/h 94% 0.02in /  0.51mm 0.00 W/m2
21:05 65.7 °F /  18.7 °C 63.7 °F /  17.6 °C 30.02in /  1016.5hPa West 2.5mph /  4km/h 3.4mph /  5.5km/h 94% 0.02in /  0.51mm 0.00 W/m2
21:10 65.7 °F /  18.7 °C 63.7 °F /  17.6 °C 30.02in /  1016.5hPa West 2.5mph /  4km/h 3.4mph /  5.5km/h 94% 0.02in /  0.51mm 0.00 W/m2
21:15 65.5 °F /  18.6 °C 63.5 °F /  17.5 °C 30.02in /  1016.5hPa NW 3.8mph /  6.1km/h 4.5mph /  7.2km/h 94% 0.03in /  0.76mm 0.00 W/m2
21:20 65.5 °F /  18.6 °C 64 °F /  17.8 °C 30.01in /  1016.1hPa WNW 3.6mph /  5.8km/h 4.5mph /  7.2km/h 95% 0.02in /  0.51mm 0.00 W/m2
21:25 65.5 °F /  18.6 °C 64 °F /  17.8 °C 30.01in /  1016.1hPa WNW 4.5mph /  7.2km/h 5.8mph /  9.3km/h 95% 0.03in /  0.76mm 0.00 W/m2
21:30 65.5 °F /  18.6 °C 64 °F /  17.8 °C 30.01in /  1016.1hPa WNW 6.3mph /  10.1km/h 8.1mph /  13km/h 95% 0.03in /  0.76mm 0.00 W/m2
21:35 65.5 °F /  18.6 °C 63.5 °F /  17.5 °C 29.99in /  1015.5hPa West 4mph /  6.4km/h 5.8mph /  9.3km/h 94% 0.03in /  0.76mm 0.00 W/m2
21:40 65.5 °F /  18.6 °C 64 °F /  17.8 °C 30.00in /  1015.8hPa WNW 4.3mph /  6.9km/h 5.8mph /  9.3km/h 95% 0.04in /  1.02mm 0.00 W/m2
21:45 65.3 °F /  18.5 °C 63.9 °F /  17.7 °C 30.00in /  1015.8hPa WNW 4.5mph /  7.2km/h 4.5mph /  7.2km/h 95% 0.04in /  1.02mm 0.00 W/m2
21:50 65.3 °F /  18.5 °C 63.9 °F /  17.7 °C 30.01in /  1016.1hPa WNW 4.3mph /  6.9km/h 4.5mph /  7.2km/h 95% 0.04in /  1.02mm 0.00 W/m2
21:55 65.3 °F /  18.5 °C 63.9 °F /  17.7 °C 30.00in /  1015.8hPa West 3.8mph /  6.1km/h 4.5mph /  7.2km/h 95% 0.05in /  1.27mm 0.00 W/m2
22:00 65.3 °F /  18.5 °C 64.2 °F /  17.9 °C 29.99in /  1015.5hPa WNW 2.5mph /  4km/h 3.4mph /  5.5km/h 96% 0.05in /  1.27mm 0.00 W/m2
22:05 65.3 °F /  18.5 °C 64.2 °F /  17.9 °C 29.99in /  1015.5hPa WNW 4mph /  6.4km/h 5.8mph /  9.3km/h 96% 0.06in /  1.52mm 0.00 W/m2
22:10 65.3 °F /  18.5 °C 64.2 °F /  17.9 °C 29.98in /  1015.1hPa WNW 4.7mph /  7.6km/h 5.8mph /  9.3km/h 96% 0.05in /  1.27mm 0.00 W/m2
22:15 65.3 °F /  18.5 °C 64.2 °F /  17.9 °C 29.97in /  1014.8hPa WNW 6mph /  9.7km/h 6.9mph /  11.1km/h 96% 0.05in /  1.27mm 0.00 W/m2
22:20 65.3 °F /  18.5 °C 64.2 °F /  17.9 °C 29.98in /  1015.1hPa WNW 2.9mph /  4.7km/h 3.4mph /  5.5km/h 96% 0.04in /  1.02mm 0.00 W/m2
22:25 65.3 °F /  18.5 °C 64.2 °F /  17.9 °C 29.99in /  1015.5hPa West 2mph /  3.2km/h 2.2mph /  3.5km/h 96% 0.04in /  1.02mm 0.00 W/m2
22:30 65.3 °F /  18.5 °C 63.9 °F /  17.7 °C 29.99in /  1015.5hPa Calm     95% 0.04in /  1.02mm 0.00 W/m2
22:35 65.3 °F /  18.5 °C 64.2 °F /  17.9 °C 29.99in /  1015.5hPa West 1.6mph /  2.6km/h 2.2mph /  3.5km/h 96% 0.03in /  0.76mm 0.00 W/m2
22:40 65.3 °F /  18.5 °C 63.9 °F /  17.7 °C 29.99in /  1015.5hPa West 2.2mph /  3.5km/h 3.4mph /  5.5km/h 95% 0.02in /  0.51mm 0.00 W/m2
22:45 65.3 °F /  18.5 °C 63.9 °F /  17.7 °C 29.99in /  1015.5hPa West 1.6mph /  2.6km/h 2.2mph /  3.5km/h 95% 0.02in /  0.51mm 0.00 W/m2
22:50 65.3 °F /  18.5 °C 63.9 °F /  17.7 °C 30.00in /  1015.8hPa Calm     95% 0.01in /  0.25mm 0.00 W/m2
22:55 65.3 °F /  18.5 °C 64.2 °F /  17.9 °C 30.00in /  1015.8hPa WNW 2.2mph /  3.5km/h 2.2mph /  3.5km/h 96% 0.01in /  0.25mm 0.00 W/m2
23:00 65.3 °F /  18.5 °C 64.2 °F /  17.9 °C 30.00in /  1015.8hPa West 1.3mph /  2.1km/h 2.2mph /  3.5km/h 96% 0in /  0mm 0.00 W/m2
23:05 65.1 °F /  18.4 °C 64 °F /  17.8 °C 29.99in /  1015.5hPa West 2.2mph /  3.5km/h 2.2mph /  3.5km/h 96% 0in /  0mm 0.00 W/m2
23:10 65.1 °F /  18.4 °C 64 °F /  17.8 °C 30.00in /  1015.8hPa West 3.4mph /  5.5km/h 3.4mph /  5.5km/h 96% 0in /  0mm 0.00 W/m2
23:15 65.1 °F /  18.4 °C 64 °F /  17.8 °C 29.99in /  1015.5hPa West 2.2mph /  3.5km/h 3.4mph /  5.5km/h 96% 0in /  0mm 0.00 W/m2
23:20 65.1 °F /  18.4 °C 64 °F /  17.8 °C 29.99in /  1015.5hPa West 3.6mph /  5.8km/h 4.5mph /  7.2km/h 96% 0in /  0mm 0.00 W/m2
23:25 64.9 °F /  18.3 °C 63.9 °F /  17.7 °C 29.99in /  1015.5hPa WSW 2.7mph /  4.3km/h 3.4mph /  5.5km/h 96% 0in /  0mm 0.00 W/m2
23:30 64.9 °F /  18.3 °C 63.9 °F /  17.7 °C 29.99in /  1015.5hPa West 4mph /  6.4km/h 4.5mph /  7.2km/h 96% 0in /  0mm 0.00 W/m2
23:35 64.9 °F /  18.3 °C 63.9 °F /  17.7 °C 29.99in /  1015.5hPa West 2.2mph /  3.5km/h 2.2mph /  3.5km/h 96% 0in /  0mm 0.00 W/m2
23:40 64.9 °F /  18.3 °C 63.9 °F /  17.7 °C 29.99in /  1015.5hPa West 3.4mph /  5.5km/h 4.5mph /  7.2km/h 96% 0in /  0mm 0.00 W/m2
23:45 64.9 °F /  18.3 °C 63.9 °F /  17.7 °C 29.99in /  1015.5hPa WNW 2.2mph /  3.5km/h 2.2mph /  3.5km/h 96% 0in /  0mm 0.00 W/m2
23:50 64.9 °F /  18.3 °C 63.9 °F /  17.7 °C 29.99in /  1015.5hPa West 2.5mph /  4km/h 4.5mph /  7.2km/h 96% 0in /  0mm 0.00 W/m2
23:55 64.8 °F /  18.2 °C 63.7 °F /  17.6 °C 29.98in /  1015.1hPa West 3.8mph /  6.1km/h 4.5mph /  7.2km/h 96% 0in /  0mm 0.00 W/m2
Soleil Laural Canyon
Compliments of Weather Underground - 4 mb